Time;durP1;ratioP1;P1;durP2;ratioP2;P2;SDS_P1;SDS_P2;PMS_P1;PMS_P2;Temp;Humidity;BMP_temperature;BMP_pressure;BME280_temperature;BME280_humidity;BME280_pressure;Samples;Min_cycle;Max_cycle;Signal;HPM_P1;HPM_P2
2021/12/04 00:01:56;;;;;;;0.80;0.80;;;4.10;99.90;;;;;;5093644;28;20085;-80
2021/12/04 00:04:30;;;;;;;1.40;1.30;;;4.10;99.90;;;;;;5094146;28;20093;-80
2021/12/04 00:06:55;;;;;;;3.90;1.75;;;4.10;99.90;;;;;;5093112;28;20040;-81
2021/12/04 00:09:22;;;;;;;1.10;0.70;;;4.50;99.90;;;;;;5094167;28;20108;-81
2021/12/04 00:11:57;;;;;;;0.88;0.88;;;4.10;99.90;;;;;;5093453;28;20059;-81
2021/12/04 00:14:23;;;;;;;1.00;1.00;;;4.20;99.90;;;;;;5094030;28;20059;-82
2021/12/04 00:16:49;;;;;;;0.93;0.93;;;4.10;99.90;;;;;;5092820;28;20052;-82
2021/12/04 00:19:15;;;;;;;0.80;0.80;;;4.10;99.90;;;;;;5092990;28;20052;-81
2021/12/04 00:21:41;;;;;;;2.35;1.75;;;4.10;99.90;;;;;;5094229;28;20040;-81
2021/12/04 00:24:07;;;;;;;0.80;0.80;;;4.80;99.90;;;;;;5092797;28;20032;-80
2021/12/04 00:26:33;;;;;;;1.92;1.83;;;4.20;99.90;;;;;;5092701;28;20051;-80
2021/12/04 00:28:59;;;;;;;0.70;0.70;;;4.10;99.90;;;;;;5093796;28;20121;-82
2021/12/04 00:31:24;;;;;;;2.00;1.85;;;4.10;99.90;;;;;;5092600;28;20321;-81
2021/12/04 00:33:50;;;;;;;1.77;1.67;;;4.10;99.90;;;;;;5094271;28;20040;-82
2021/12/04 00:49:58;;;;;;;2.03;1.88;;;4.20;99.90;;;;;;5093429;28;20484;-80
2021/12/04 00:52:24;;;;;;;0.80;0.80;;;4.10;99.90;;;;;;5093586;28;20044;-80
2021/12/04 00:54:50;;;;;;;1.15;1.05;;;4.10;99.90;;;;;;5092159;28;20454;-80
2021/12/04 00:57:15;;;;;;;0.60;0.60;;;4.10;99.90;;;;;;5093760;28;20043;-81
2021/12/04 00:59:41;;;;;;;0.70;0.70;;;4.10;99.90;;;;;;5093463;28;20101;-80
2021/12/04 01:02:07;;;;;;;0.65;0.65;;;5.00;99.90;;;;;;5093469;28;20113;-80
2021/12/04 01:04:33;;;;;;;0.60;0.60;;;4.10;99.90;;;;;;5093446;28;20048;-82
2021/12/04 01:06:59;;;;;;;0.70;0.70;;;4.10;99.90;;;;;;5093346;28;20464;-81
2021/12/04 01:09:25;;;;;;;0.60;0.60;;;4.10;99.90;;;;;;5092320;28;20044;-81
2021/12/04 01:11:53;;;;;;;1.73;1.63;;;4.10;99.90;;;;;;5093408;28;20059;-81
2021/12/04 01:14:22;;;;;;;0.90;0.90;;;4.10;99.90;;;;;;5092847;28;20102;-81
2021/12/04 01:16:48;;;;;;;1.77;1.67;;;4.10;99.90;;;;;;5096821;28;20412;-81
2021/12/04 01:19:14;;;;;;;0.70;0.70;;;4.10;99.90;;;;;;5097302;28;20051;-80
2021/12/04 01:21:43;;;;;;;0.70;0.70;;;4.10;99.90;;;;;;5097080;28;20285;-81
2021/12/04 01:24:09;;;;;;;1.48;1.38;;;4.10;99.90;;;;;;5097070;28;20044;-81
2021/12/04 01:26:35;;;;;;;1.17;1.10;;;4.10;99.90;;;;;;5097333;28;20036;-81
2021/12/04 01:29:00;;;;;;;0.60;0.60;;;4.10;99.90;;;;;;5097052;28;20051;-82
2021/12/04 01:31:26;;;;;;;0.70;0.70;;;4.10;99.90;;;;;;5096999;28;20040;-81
2021/12/04 01:33:52;;;;;;;0.70;0.70;;;4.10;99.90;;;;;;5096925;28;20051;-81
2021/12/04 01:36:17;;;;;;;1.00;0.95;;;4.10;99.90;;;;;;5096785;28;20040;-83
2021/12/04 01:38:43;;;;;;;0.70;0.70;;;4.10;99.90;;;;;;5096855;28;20472;-82
2021/12/04 01:41:09;;;;;;;2.17;1.95;;;4.00;99.90;;;;;;5097285;28;20379;-80
2021/12/04 01:43:35;;;;;;;1.02;0.95;;;4.10;99.90;;;;;;5096776;28;20048;-81
2021/12/04 01:46:01;;;;;;;1.80;1.67;;;4.10;99.90;;;;;;5096751;28;20042;-82
2021/12/04 01:48:26;;;;;;;0.60;0.60;;;4.10;99.90;;;;;;5096793;28;20040;-81
2021/12/04 01:50:52;;;;;;;0.60;0.60;;;4.10;99.90;;;;;;5096553;28;20507;-80
2021/12/04 01:53:19;;;;;;;0.93;0.93;;;4.10;99.90;;;;;;5095459;28;20044;-81
2021/12/04 01:55:44;;;;;;;0.77;0.77;;;4.10;99.90;;;;;;5096499;28;20123;-81
2021/12/04 01:58:12;;;;;;;1.13;1.00;;;4.10;99.90;;;;;;5096460;28;20125;-80
2021/12/04 02:00:41;;;;;;;0.80;0.80;;;4.10;99.90;;;;;;5096279;28;20472;-81
2021/12/04 02:03:08;;;;;;;1.35;1.25;;;4.10;99.90;;;;;;5096334;28;20510;-81
2021/12/04 02:05:39;;;;;;;0.60;0.60;;;4.10;99.90;;;;;;5096318;28;20403;-80
2021/12/04 02:08:11;;;;;;;0.88;0.88;;;4.10;99.90;;;;;;5096276;28;20055;-80
2021/12/04 02:10:36;;;;;;;1.00;1.00;;;4.10;99.90;;;;;;5096368;28;20044;-80
2021/12/04 02:13:03;;;;;;;1.17;1.13;;;4.10;99.90;;;;;;5096218;28;20097;-81
2021/12/04 02:15:29;;;;;;;0.90;0.90;;;4.10;99.90;;;;;;5094879;28;20056;-80
2021/12/04 02:17:55;;;;;;;2.85;2.30;;;4.10;99.90;;;;;;5096133;28;20315;-82
2021/12/04 02:20:24;;;;;;;0.67;0.67;;;4.00;99.90;;;;;;5096047;28;20070;-81
2021/12/04 02:22:50;;;;;;;1.08;1.00;;;4.10;99.90;;;;;;5096163;28;20492;-82
2021/12/04 02:25:16;;;;;;;2.65;1.15;;;4.10;99.90;;;;;;5095241;28;20488;-82
2021/12/04 02:27:43;;;;;;;0.60;0.60;;;4.10;99.90;;;;;;5094657;28;20568;-81
2021/12/04 02:30:12;;;;;;;0.60;0.60;;;4.10;99.90;;;;;;5094617;28;20480;-81
2021/12/04 02:32:38;;;;;;;0.68;0.68;;;4.00;99.90;;;;;;5095616;28;20048;-81
2021/12/04 02:35:06;;;;;;;0.70;0.70;;;4.10;99.90;;;;;;5096222;28;20480;-81
2021/12/04 02:37:32;;;;;;;1.25;0.93;;;4.10;99.90;;;;;;5095621;28;20376;-81
2021/12/04 02:39:59;;;;;;;0.60;0.60;;;4.00;99.90;;;;;;5095547;28;20044;-81
2021/12/04 02:42:28;;;;;;;;;;;4.00;99.90;;;;;;5096070;28;20373;-82
2021/12/04 02:44:54;;;;;;;0.68;0.68;;;4.00;99.90;;;;;;5095688;28;19920;-80
2021/12/04 02:47:20;;;;;;;0.60;0.60;;;4.00;99.90;;;;;;5095454;28;20040;-82
2021/12/04 02:49:45;;;;;;;0.60;0.60;;;4.00;99.90;;;;;;5095485;28;20537;-81
2021/12/04 02:52:12;;;;;;;0.60;0.60;;;4.00;99.90;;;;;;5095642;28;20056;-80
2021/12/04 02:54:38;;;;;;;0.85;0.85;;;4.00;99.90;;;;;;5095378;28;20044;-81
2021/12/04 02:57:07;;;;;;;0.60;0.60;;;4.00;99.90;;;;;;5095266;28;20411;-83
2021/12/04 02:59:34;;;;;;;0.60;0.60;;;3.80;99.90;;;;;;5095223;28;20040;-81
2021/12/04 03:01:59;;;;;;;1.33;1.23;;;4.40;99.90;;;;;;5095142;28;20123;-81
2021/12/04 03:04:27;;;;;;;1.40;1.30;;;4.00;99.90;;;;;;5095139;28;20586;-81
2021/12/04 03:06:53;;;;;;;0.98;0.98;;;4.00;99.90;;;;;;5095139;28;20119;-81
2021/12/04 03:09:19;;;;;;;0.60;0.60;;;4.00;99.90;;;;;;5095038;28;20075;-81
2021/12/04 03:11:44;;;;;;;0.70;0.70;;;4.00;99.90;;;;;;5094160;28;20040;-80
2021/12/04 03:14:11;;;;;;;0.60;0.60;;;4.10;99.90;;;;;;5095053;28;20046;-82
2021/12/04 03:16:39;;;;;;;2.60;2.40;;;4.00;99.90;;;;;;5094370;28;20090;-81
2021/12/04 03:19:06;;;;;;;0.60;0.60;;;4.00;99.90;;;;;;5094520;28;20036;-80
2021/12/04 03:21:32;;;;;;;1.77;1.67;;;4.00;99.90;;;;;;5095199;28;20047;-81
2021/12/04 03:24:02;;;;;;;1.15;1.05;;;4.00;99.90;;;;;;5095076;28;20060;-82
2021/12/04 03:26:28;;;;;;;0.70;0.70;;;4.00;99.90;;;;;;5094786;28;20070;-82
2021/12/04 03:28:56;;;;;;;0.50;0.50;;;4.10;99.90;;;;;;5094699;28;20040;-82
2021/12/04 03:31:43;;;;;;;0.60;0.60;;;4.10;99.90;;;;;;5094558;28;20047;-82
2021/12/04 03:42:22;;;;;;;1.42;1.33;;;4.10;99.90;;;;;;5094497;28;20048;-81
2021/12/04 03:44:48;;;;;;;0.60;0.60;;;4.10;99.90;;;;;;5094330;28;20039;-82
2021/12/04 03:47:14;;;;;;;0.60;0.60;;;4.10;99.90;;;;;;5093299;28;20040;-83
2021/12/04 03:49:39;;;;;;;0.90;0.90;;;4.10;99.90;;;;;;5094441;28;20454;-81
2021/12/04 03:52:06;;;;;;;0.85;0.85;;;4.10;99.90;;;;;;5094320;28;20044;-81
2021/12/04 03:54:31;;;;;;;;;;;4.10;99.90;;;;;;5094713;28;20052;-81
2021/12/04 03:57:04;;;;;;;0.60;0.60;;;4.00;99.90;;;;;;5094146;28;20382;-82
2021/12/04 03:59:31;;;;;;;0.60;0.60;;;4.10;99.90;;;;;;5094363;28;20048;-81
2021/12/04 04:01:57;;;;;;;1.00;0.90;;;4.10;99.90;;;;;;5092967;28;20438;-81
2021/12/04 04:04:23;;;;;;;1.13;1.02;;;4.10;99.90;;;;;;5094210;28;20051;-81
2021/12/04 04:06:48;;;;;;;0.80;0.80;;;4.10;99.90;;;;;;5094333;28;20464;-81
2021/12/04 04:09:14;;;;;;;0.60;0.60;;;4.10;99.90;;;;;;5094066;28;20376;-82
2021/12/04 04:11:40;;;;;;;1.10;0.93;;;4.10;99.90;;;;;;5094116;28;20051;-81
2021/12/04 04:14:05;;;;;;;0.60;0.60;;;4.10;99.90;;;;;;5094013;28;20050;-80
2021/12/04 04:16:35;;;;;;;0.90;0.90;;;4.10;99.90;;;;;;5093958;28;20155;-81
2021/12/04 04:19:00;;;;;;;0.60;0.60;;;4.10;99.90;;;;;;5093928;28;20044;-80
2021/12/04 04:21:26;;;;;;;0.70;0.70;;;4.10;99.90;;;;;;5093836;28;20075;-81
2021/12/04 04:23:52;;;;;;;0.60;0.60;;;4.10;99.90;;;;;;5092635;28;20036;-81
2021/12/04 04:26:17;;;;;;;2.83;2.05;;;4.10;99.90;;;;;;5093988;28;20051;-82
2021/12/04 04:28:43;;;;;;;0.65;0.65;;;4.10;99.90;;;;;;5094279;28;20044;-81
2021/12/04 04:31:09;;;;;;;0.80;0.80;;;4.10;99.90;;;;;;5093640;28;20044;-81
2021/12/04 04:33:39;;;;;;;0.77;0.77;;;4.10;99.90;;;;;;5093905;28;20048;-82
2021/12/04 04:36:14;;;;;;;0.57;0.57;;;4.10;99.90;;;;;;5093688;28;20089;-82
2021/12/04 04:38:59;;;;;;;0.80;0.80;;;4.10;99.90;;;;;;5093722;28;20044;-83
2021/12/04 04:58:26;;;;;;;0.60;0.60;;;4.20;99.90;;;;;;5097577;28;20052;-82
2021/12/04 05:01:10;;;;;;;0.60;0.60;;;4.20;99.90;;;;;;5097771;28;20044;-81
2021/12/04 05:14:45;;;;;;;0.70;0.70;;;4.10;99.90;;;;;;5073227;28;20044;-82
2021/12/04 05:17:26;;;;;;;0.60;0.60;;;4.10;99.90;;;;;;5097407;28;20051;-82
2021/12/04 05:19:55;;;;;;;0.60;0.60;;;4.10;99.90;;;;;;5098017;28;20491;-81
2021/12/04 05:22:22;;;;;;;0.60;0.60;;;4.10;99.90;;;;;;5098531;28;20054;-82
2021/12/04 05:24:48;;;;;;;0.85;0.85;;;4.10;99.90;;;;;;5098414;28;20506;-81
2021/12/04 05:27:14;;;;;;;3.20;1.90;;;4.10;99.90;;;;;;5098456;28;20040;-80
2021/12/04 05:29:41;;;;;;;0.60;0.60;;;4.20;99.90;;;;;;5098163;28;20676;-82
2021/12/04 05:32:08;;;;;;;0.68;0.68;;;4.20;99.90;;;;;;5097073;28;20036;-81
2021/12/04 05:34:34;;;;;;;0.60;0.60;;;4.20;99.90;;;;;;5095963;28;20040;-81
2021/12/04 05:37:01;;;;;;;1.17;1.08;;;4.60;99.90;;;;;;5097293;28;20123;-81
2021/12/04 05:39:27;;;;;;;0.50;0.50;;;4.20;99.90;;;;;;5097266;28;20070;-81
2021/12/04 05:41:53;;;;;;;0.70;0.60;;;4.20;99.90;;;;;;5095560;28;20274;-81
2021/12/04 05:44:23;;;;;;;0.70;0.70;;;4.20;99.90;;;;;;5096967;28;20036;-82
2021/12/04 05:47:08;;;;;;;0.60;0.60;;;4.20;99.90;;;;;;5096682;28;20040;-81
2021/12/04 05:57:23;;;;;;;0.70;0.70;;;4.20;99.90;;;;;;5096387;28;20079;-82
2021/12/04 05:59:48;;;;;;;0.70;0.70;;;4.20;99.90;;;;;;5094626;28;20387;-82
2021/12/04 06:02:16;;;;;;;0.57;0.57;;;4.10;99.90;;;;;;5096307;28;20112;-81
2021/12/04 06:04:42;;;;;;;0.82;0.82;;;4.10;99.90;;;;;;5096608;28;20079;-81
2021/12/04 06:07:07;;;;;;;1.30;1.25;;;4.10;99.90;;;;;;5096537;28;20071;-82
2021/12/04 06:09:33;;;;;;;0.60;0.60;;;4.20;99.90;;;;;;5096295;28;20051;-82
2021/12/04 06:12:04;;;;;;;1.98;1.38;;;4.20;99.90;;;;;;5096241;28;20491;-81
2021/12/04 06:14:31;;;;;;;0.75;0.75;;;4.20;99.90;;;;;;5096118;28;20054;-82
2021/12/04 06:16:57;;;;;;;0.60;0.60;;;4.20;99.90;;;;;;5096277;28;20381;-82
2021/12/04 06:22:37;;;;;;;1.40;1.30;;;4.10;99.90;;;;;;5096258;28;20047;-81
2021/12/04 06:24:55;;;;;;;0.60;0.60;;;4.10;99.90;;;;;;5096006;28;20059;-81
2021/12/04 06:27:21;;;;;;;0.70;0.70;;;4.20;99.90;;;;;;5095953;28;20044;-81
2021/12/04 06:29:46;;;;;;;1.05;0.93;;;4.10;99.90;;;;;;5095112;28;20044;-81
2021/12/04 06:32:12;;;;;;;0.60;0.60;;;4.10;99.90;;;;;;5095870;28;20040;-81
2021/12/04 06:34:37;;;;;;;0.65;0.65;;;4.10;99.90;;;;;;5094718;28;20109;-81
2021/12/04 06:37:03;;;;;;;0.75;0.60;;;4.20;99.90;;;;;;5095784;28;20036;-82
2021/12/04 06:39:29;;;;;;;0.50;0.50;;;4.10;99.90;;;;;;5094950;28;20533;-82
2021/12/04 06:41:54;;;;;;;0.52;0.52;;;4.10;99.90;;;;;;5095337;28;20040;-83
2021/12/04 06:44:20;;;;;;;0.65;0.65;;;4.20;99.90;;;;;;5095691;28;20040;-81
2021/12/04 06:46:46;;;;;;;0.98;0.95;;;4.10;99.90;;;;;;5095591;28;20039;-79
2021/12/04 06:49:19;;;;;;;0.60;0.60;;;4.20;99.90;;;;;;5094684;28;20052;-79
2021/12/04 06:51:49;;;;;;;0.75;0.75;;;4.20;99.90;;;;;;5095574;28;20400;-79
2021/12/04 06:54:32;;;;;;;1.40;1.30;;;4.10;99.90;;;;;;5095114;28;20059;-81
2021/12/04 06:56:57;;;;;;;0.70;0.70;;;4.10;99.90;;;;;;5095709;28;20046;-81
2021/12/04 06:59:29;;;;;;;0.60;0.60;;;4.10;99.90;;;;;;5094201;28;20480;-81
2021/12/04 07:01:55;;;;;;;0.73;0.73;;;4.10;99.90;;;;;;5095561;28;20083;-80
2021/12/04 07:04:21;;;;;;;0.65;0.65;;;4.10;99.90;;;;;;5095336;28;20083;-81
2021/12/04 07:06:48;;;;;;;0.60;0.60;;;4.10;99.90;;;;;;5095237;28;20459;-82
2021/12/04 07:09:14;;;;;;;0.65;0.65;;;4.20;99.90;;;;;;5095614;28;20055;-83
2021/12/04 07:11:40;;;;;;;0.63;0.63;;;4.20;99.90;;;;;;5095213;28;20482;-81
2021/12/04 07:14:05;;;;;;;0.60;0.60;;;4.20;99.90;;;;;;5093958;28;20047;-82
2021/12/04 07:16:32;;;;;;;1.17;1.00;;;4.10;99.90;;;;;;5095111;28;20048;-83
2021/12/04 07:18:57;;;;;;;1.30;1.25;;;4.20;99.90;;;;;;5094911;28;20395;-83
2021/12/04 07:21:24;;;;;;;0.75;0.75;;;4.20;99.90;;;;;;5076671;28;20044;-83
2021/12/04 07:23:50;;;;;;;0.65;0.65;;;4.20;99.90;;;;;;5093928;28;20059;-84
2021/12/04 07:26:17;;;;;;;0.80;0.80;;;4.10;99.90;;;;;;5094753;28;20036;-84
2021/12/04 07:28:42;;;;;;;;;;;4.10;99.90;;;;;;5095369;28;20052;-82
2021/12/04 07:31:08;;;;;;;0.90;0.90;;;4.20;99.90;;;;;;5094669;28;20011;-86
2021/12/04 07:33:34;;;;;;;0.60;0.60;;;4.20;99.90;;;;;;5076538;28;20044;-83
2021/12/04 07:36:00;;;;;;;0.80;0.80;;;4.10;99.90;;;;;;5094508;28;20519;-83
2021/12/04 07:38:27;;;;;;;0.70;0.70;;;4.40;99.90;;;;;;5094717;28;20083;-84
2021/12/04 07:40:52;;;;;;;;;;;4.10;99.90;;;;;;5094908;28;20079;-84
2021/12/04 07:43:18;;;;;;;0.63;0.63;;;4.10;99.90;;;;;;5094476;28;20033;-80
2021/12/04 07:45:44;;;;;;;1.25;1.15;;;4.20;99.90;;;;;;5094468;28;20051;-80
2021/12/04 07:48:10;;;;;;;0.80;0.80;;;4.20;99.90;;;;;;5094239;28;20039;-77
2021/12/04 07:50:38;;;;;;;0.70;0.70;;;4.10;99.90;;;;;;5094344;28;20070;-80
2021/12/04 07:53:03;;;;;;;0.70;0.70;;;4.10;99.90;;;;;;5094282;28;20040;-80
2021/12/04 07:55:30;;;;;;;0.60;0.60;;;4.20;99.90;;;;;;5094356;28;20055;-79
2021/12/04 07:57:55;;;;;;;0.70;0.70;;;4.20;99.90;;;;;;5094273;28;20459;-79
2021/12/04 08:00:22;;;;;;;0.70;0.70;;;4.20;99.90;;;;;;5094330;28;20086;-79
2021/12/04 08:02:48;;;;;;;2.30;1.95;;;4.30;99.90;;;;;;5094201;28;20051;-79
2021/12/04 08:05:15;;;;;;;0.60;0.60;;;4.10;99.90;;;;;;5094167;28;20055;-81
2021/12/04 08:07:41;;;;;;;0.90;0.90;;;4.30;99.90;;;;;;5094153;28;20042;-81
2021/12/04 08:10:12;;;;;;;1.58;1.33;;;4.30;99.90;;;;;;5094178;28;20123;-79
2021/12/04 08:12:39;;;;;;;0.60;0.60;;;4.30;99.90;;;;;;5093953;28;20052;-81
2021/12/04 08:15:06;;;;;;;0.70;0.70;;;4.50;99.90;;;;;;5092615;28;20123;-79
2021/12/04 08:17:32;;;;;;;1.23;1.13;;;;;;;;;;5093916;28;20048;-81
2021/12/04 08:19:57;;;;;;;1.00;0.97;;;4.30;99.90;;;;;;5093868;28;20385;-81
2021/12/04 08:22:23;;;;;;;0.85;0.85;;;4.30;99.90;;;;;;5093886;28;20051;-81
2021/12/04 08:24:49;;;;;;;1.35;1.20;;;4.30;99.90;;;;;;5093510;28;20051;-82
2021/12/04 08:27:16;;;;;;;1.30;1.25;;;4.30;99.90;;;;;;5092663;28;20040;-80
2021/12/04 08:29:43;;;;;;;0.95;0.95;;;4.30;99.90;;;;;;5093789;28;20384;-82
2021/12/04 08:32:09;;;;;;;0.65;0.65;;;4.30;99.90;;;;;;5093912;28;20078;-79
2021/12/04 08:34:36;;;;;;;1.15;1.13;;;4.30;99.90;;;;;;5076026;28;20056;-82
2021/12/04 08:37:03;;;;;;;2.70;2.28;;;4.30;99.90;;;;;;5093756;28;20040;-80
2021/12/04 08:39:29;;;;;;;0.70;0.70;;;4.30;99.90;;;;;;5093748;28;20066;-83
2021/12/04 08:41:55;;;;;;;0.70;0.70;;;4.30;99.90;;;;;;5093759;28;20472;-80
2021/12/04 08:44:21;;;;;;;0.90;0.90;;;4.30;99.90;;;;;;5092739;28;20048;-79
2021/12/04 08:46:47;;;;;;;1.15;1.13;;;4.30;99.90;;;;;;5093809;28;20463;-79
2021/12/04 08:49:12;;;;;;;4.18;1.70;;;4.40;99.90;;;;;;5092238;28;20534;-78
2021/12/04 08:51:38;;;;;;;1.05;0.95;;;4.40;99.90;;;;;;5093532;28;20044;-79
2021/12/04 08:54:05;;;;;;;4.83;3.40;;;4.40;99.90;;;;;;5093592;28;20122;-76
2021/12/04 08:56:33;;;;;;;8.00;2.63;;;4.40;99.90;;;;;;5093518;28;20102;-79
2021/12/04 08:58:58;;;;;;;1.75;1.25;;;4.40;99.90;;;;;;5093321;28;20048;-78
2021/12/04 09:01:29;;;;;;;1.20;1.15;;;4.40;99.90;;;;;;5093513;28;20040;-78
2021/12/04 09:04:05;;;;;;;1.80;1.65;;;4.40;99.90;;;;;;5093627;28;20100;-79
2021/12/04 09:06:32;;;;;;;1.42;0.75;;;4.40;99.90;;;;;;5093769;28;20041;-78
2021/12/04 09:08:58;;;;;;;;;;;4.40;99.90;;;;;;5093777;28;20052;-83
2021/12/04 09:11:34;;;;;;;0.60;0.60;;;4.40;99.90;;;;;;5093387;28;20018;-81
2021/12/04 09:14:00;;;;;;;0.90;0.90;;;4.40;99.90;;;;;;5093250;28;20079;-82
2021/12/04 09:16:26;;;;;;;0.60;0.60;;;4.40;99.90;;;;;;5093231;28;20055;-82
2021/12/04 09:18:52;;;;;;;0.80;0.80;;;5.30;99.90;;;;;;5093470;28;20036;-80
2021/12/04 09:21:18;;;;;;;2.05;1.77;;;4.50;99.90;;;;;;5093439;28;20039;-79
2021/12/04 09:23:51;;;;;;;1.52;1.42;;;4.50;99.90;;;;;;5093318;28;20048;-82
2021/12/04 09:32:25;;;;;;;1.58;1.08;;;4.50;99.90;;;;;;5091670;28;20078;-82
2021/12/04 10:15:56;;;;;;;;;;;4.60;99.90;;;;;;5096294;28;20095;-83
2021/12/04 10:34:57;;;;;;;1.27;1.17;;;4.70;99.90;;;;;;5095784;28;20048;-82
2021/12/04 10:37:25;;;;;;;1.30;0.88;;;4.80;99.90;;;;;;5094849;28;20048;-83
2021/12/04 10:39:54;;;;;;;3.75;1.50;;;4.80;99.90;;;;;;5095430;28;20123;-84
2021/12/04 10:42:27;;;;;;;1.55;1.45;;;4.80;99.90;;;;;;5095605;28;20074;-81
2021/12/04 10:44:55;;;;;;;0.93;0.93;;;4.60;99.90;;;;;;5094640;28;20056;-81
2021/12/04 10:47:24;;;;;;;1.13;1.02;;;4.80;99.90;;;;;;5060531;28;20052;-81
2021/12/04 10:52:56;;;;;;;1.33;1.23;;;4.80;99.90;;;;;;5094431;28;20059;-81
2021/12/04 10:55:39;;;;;;;1.50;1.40;;;4.90;99.90;;;;;;5095380;28;20089;-84
2021/12/04 11:41:35;;;;;;;0.95;0.80;;;5.00;99.90;;;;;;5094648;28;20059;-80
2021/12/04 11:46:45;;;;;;;0.75;0.73;;;4.90;99.90;;;;;;5094384;28;20071;-82
2021/12/04 11:49:20;;;;;;;3.40;3.20;;;5.00;99.90;;;;;;5094678;28;20044;-82
2021/12/04 11:52:01;;;;;;;1.40;1.30;;;4.90;99.90;;;;;;5093169;28;20123;-80
2021/12/04 11:54:31;;;;;;;2.95;2.25;;;4.90;99.90;;;;;;5094519;28;20127;-85
2021/12/04 11:57:08;;;;;;;5.97;2.05;;;4.90;99.90;;;;;;5092991;28;20040;-77
2021/12/04 11:59:36;;;;;;;1.88;1.77;;;4.90;99.90;;;;;;5093642;28;20108;-77
2021/12/04 12:02:05;;;;;;;2.40;1.77;;;4.90;99.90;;;;;;5094237;28;20055;-80
2021/12/04 12:04:33;;;;;;;5.32;3.22;;;4.90;99.90;;;;;;5090928;28;20048;-84
2021/12/04 12:07:16;;;;;;;7.45;3.90;;;4.90;99.90;;;;;;5093826;28;20062;-81
2021/12/04 12:09:43;;;;;;;4.75;3.40;;;;;;;;;;5093784;28;20177;-82
2021/12/04 12:12:13;;;;;;;4.75;3.10;;;5.00;99.90;;;;;;5093909;28;20369;-82
2021/12/04 12:14:53;;;;;;;1.33;1.23;;;5.00;99.90;;;;;;5092010;28;20058;-81
2021/12/04 12:17:34;;;;;;;1.67;1.20;;;5.00;99.90;;;;;;5092134;28;20080;-80
2021/12/04 12:20:03;;;;;;;1.50;1.35;;;5.00;99.90;;;;;;5092395;28;20403;-73
2021/12/04 12:22:42;;;;;;;0.82;0.82;;;5.00;99.90;;;;;;5093875;28;20044;-79
2021/12/04 12:25:22;;;;;;;2.08;1.98;;;5.00;99.90;;;;;;5094257;28;20048;-81
2021/12/04 12:36:11;;;;;;;1.27;1.17;;;5.10;99.90;;;;;;5093965;28;20177;-79
2021/12/04 12:38:51;;;;;;;1.38;1.27;;;5.10;99.90;;;;;;5093835;28;20042;-79
2021/12/04 12:41:26;;;;;;;1.48;1.38;;;5.10;99.90;;;;;;5093758;28;20044;-79
2021/12/04 12:44:13;;;;;;;1.00;1.00;;;5.10;99.90;;;;;;5093637;28;20059;-79
2021/12/04 12:46:48;;;;;;;10.67;2.30;;;5.00;99.90;;;;;;5093824;28;20075;-79
2021/12/04 12:49:36;;;;;;;1.42;1.17;;;5.00;99.90;;;;;;5093400;28;20297;-79
2021/12/04 12:52:04;;;;;;;;;;;5.00;99.90;;;;;;5094106;28;20040;-78
2021/12/04 12:54:57;;;;;;;8.48;2.58;;;5.00;99.90;;;;;;5093970;28;20424;-79
2021/12/04 12:57:29;;;;;;;1.73;1.60;;;5.00;99.90;;;;;;5091677;28;20079;-78
2021/12/04 13:14:18;;;;;;;1.55;1.45;;;4.90;99.90;;;;;;5097411;28;20094;-79
2021/12/04 13:16:51;;;;;;;1.30;1.20;;;4.90;99.90;;;;;;5097431;28;20044;-79
2021/12/04 13:19:19;;;;;;;0.93;0.93;;;5.00;99.90;;;;;;5097756;28;20059;-80
2021/12/04 13:21:49;;;;;;;2.85;2.50;;;4.90;99.90;;;;;;5097216;28;20087;-79
2021/12/04 13:24:17;;;;;;;2.35;2.15;;;4.90;99.90;;;;;;5097176;28;20516;-79
2021/12/04 13:26:46;;;;;;;3.22;1.80;;;4.90;99.90;;;;;;5097076;28;20089;-79
2021/12/04 13:29:15;;;;;;;1.67;1.15;;;4.90;99.90;;;;;;5097045;28;20044;-79
2021/12/04 13:31:41;;;;;;;0.80;0.70;;;4.90;99.90;;;;;;5097183;28;20048;-79
2021/12/04 13:34:08;;;;;;;4.07;2.92;;;4.90;99.90;;;;;;5097095;28;20441;-79
2021/12/04 13:36:35;;;;;;;1.80;1.08;;;4.90;99.90;;;;;;5096934;28;20082;-79
2021/12/04 13:39:11;;;;;;;7.97;3.85;;;4.90;99.90;;;;;;5096936;28;20105;-79
2021/12/04 13:41:41;;;;;;;1.27;1.17;;;4.90;99.90;;;;;;5096992;28;20396;-80
2021/12/04 13:44:09;;;;;;;21.02;3.95;;;4.90;99.90;;;;;;5097226;28;20048;-78
2021/12/04 13:46:45;;;;;;;2.05;1.42;;;4.90;99.90;;;;;;5096846;28;20098;-79
2021/12/04 13:49:14;;;;;;;1.47;1.37;;;5.00;99.90;;;;;;5097037;28;20048;-79
2021/12/04 13:51:41;;;;;;;1.40;1.30;;;5.00;99.90;;;;;;5095505;28;20084;-78
2021/12/04 13:54:07;;;;;;;1.02;0.93;;;5.00;99.90;;;;;;5096791;28;20047;-79
2021/12/04 13:56:34;;;;;;;4.57;1.35;;;5.00;99.90;;;;;;5096273;28;20048;-79
2021/12/04 13:59:01;;;;;;;;;;;5.00;99.90;;;;;;5097387;28;20137;-79
2021/12/04 14:01:29;;;;;;;1.38;1.27;;;5.00;99.90;;;;;;5096117;28;19920;-79
2021/12/04 14:04:00;;;;;;;1.30;1.20;;;5.00;99.90;;;;;;5096436;28;20044;-79
2021/12/04 14:06:26;;;;;;;1.20;1.13;;;5.20;99.90;;;;;;5096443;28;20043;-79
2021/12/04 14:09:00;;;;;;;0.82;0.82;;;5.00;99.90;;;;;;5096290;28;20087;-80
2021/12/04 14:11:36;;;;;;;4.03;3.72;;;5.00;99.90;;;;;;5095782;28;20052;-79
2021/12/04 14:14:16;;;;;;;2.95;1.67;;;5.10;99.90;;;;;;5096143;28;20054;-79
2021/12/04 14:16:44;;;;;;;3.13;1.83;;;5.00;99.90;;;;;;5096083;28;20052;-79
2021/12/04 14:19:12;;;;;;;4.53;0.93;;;5.10;99.90;;;;;;5096065;28;20052;-79
2021/12/04 14:21:38;;;;;;;0.60;0.60;;;5.10;99.90;;;;;;5095014;28;20094;-79
2021/12/04 14:24:04;;;;;;;0.98;0.98;;;5.00;99.90;;;;;;5096006;28;20052;-79
2021/12/04 14:26:29;;;;;;;0.85;0.85;;;5.10;99.90;;;;;;5095695;28;20052;-79
2021/12/04 14:28:55;;;;;;;1.45;1.35;;;5.70;99.90;;;;;;5095680;28;20084;-79
2021/12/04 14:31:22;;;;;;;0.85;0.80;;;5.00;99.90;;;;;;5094813;28;20132;-79
2021/12/04 14:33:47;;;;;;;0.73;0.70;;;5.00;99.90;;;;;;5095871;28;20036;-79
2021/12/04 14:36:19;;;;;;;4.72;2.05;;;5.00;99.90;;;;;;5095681;28;20043;-78
2021/12/04 14:38:45;;;;;;;3.72;2.33;;;5.00;99.90;;;;;;5096171;28;20127;-79
2021/12/04 14:41:12;;;;;;;0.70;0.70;;;5.00;99.90;;;;;;5096027;28;20091;-78
2021/12/04 14:43:39;;;;;;;0.88;0.85;;;5.00;99.90;;;;;;5095492;28;20048;-79
2021/12/04 14:46:14;;;;;;;1.58;1.15;;;5.00;99.90;;;;;;5095665;28;20463;-79
2021/12/04 14:48:48;;;;;;;0.60;0.60;;;5.00;99.90;;;;;;5095577;28;20036;-78
2021/12/04 14:51:17;;;;;;;0.82;0.82;;;5.00;99.90;;;;;;5095485;28;20083;-78
2021/12/04 14:54:02;;;;;;;0.70;0.70;;;5.00;99.90;;;;;;5095312;28;20123;-79
2021/12/04 14:56:30;;;;;;;1.52;1.08;;;5.00;99.90;;;;;;5077719;28;20048;-78
2021/12/04 14:58:57;;;;;;;8.00;3.20;;;5.00;99.90;;;;;;5095177;28;20044;-79
2021/12/04 15:01:29;;;;;;;0.95;0.95;;;5.00;99.90;;;;;;5094908;28;20075;-79
2021/12/04 15:03:58;;;;;;;0.60;0.60;;;5.00;99.90;;;;;;5095210;28;20399;-78
2021/12/04 15:06:26;;;;;;;7.30;1.58;;;5.00;99.90;;;;;;5095334;28;20150;-79
2021/12/04 15:08:57;;;;;;;0.98;0.90;;;5.00;99.90;;;;;;5095202;28;20048;-78
2021/12/04 15:11:34;;;;;;;2.00;1.90;;;5.00;99.90;;;;;;5095094;28;20058;-79
2021/12/04 15:14:32;;;;;;;1.13;1.02;;;5.00;99.90;;;;;;5095085;28;20119;-78
2021/12/04 15:17:05;;;;;;;1.50;1.00;;;5.00;99.90;;;;;;5095257;28;20051;-78
2021/12/04 15:19:40;;;;;;;1.23;1.02;;;5.00;99.90;;;;;;5094943;28;20055;-82
2021/12/04 15:22:09;;;;;;;1.38;1.27;;;5.00;99.90;;;;;;5094986;28;20047;-80
2021/12/04 15:24:39;;;;;;;0.50;0.50;;;5.50;99.90;;;;;;5094818;28;20044;-79
2021/12/04 15:27:08;;;;;;;1.23;1.13;;;4.90;99.90;;;;;;5094837;28;20097;-78
2021/12/04 15:29:36;;;;;;;2.45;2.25;;;4.90;99.90;;;;;;5094751;28;20079;-80
2021/12/04 15:32:08;;;;;;;0.85;0.85;;;4.90;99.90;;;;;;5093418;28;20123;-82
2021/12/04 15:34:49;;;;;;;1.42;1.33;;;5.00;99.90;;;;;;5092672;28;20054;-81
2021/12/04 15:37:41;;;;;;;0.95;0.95;;;5.00;99.90;;;;;;5094869;28;20043;-81
2021/12/04 15:40:25;;;;;;;6.32;1.50;;;5.00;99.90;;;;;;5094216;28;20048;-80
2021/12/04 15:43:06;;;;;;;1.58;1.48;;;4.90;99.90;;;;;;5094145;28;20040;-82
2021/12/04 15:45:49;;;;;;;0.70;0.70;;;4.90;99.90;;;;;;5093718;28;20048;-80
2021/12/04 15:51:28;;;;;;;1.88;1.13;;;4.90;99.90;;;;;;5093560;28;20142;-80
2021/12/04 15:53:32;;;;;;;0.80;0.80;;;4.90;99.90;;;;;;5093862;28;20408;-79
2021/12/04 15:55:58;;;;;;;0.70;0.70;;;4.90;99.90;;;;;;5094177;28;20036;-81
2021/12/04 15:58:26;;;;;;;1.02;0.93;;;4.90;99.90;;;;;;5093363;28;20492;-82
2021/12/04 16:01:04;;;;;;;1.00;0.80;;;4.90;99.90;;;;;;5094233;28;20044;-79
2021/12/04 16:03:29;;;;;;;0.70;0.70;;;4.90;99.90;;;;;;5094209;28;20047;-75
2021/12/04 16:06:01;;;;;;;0.82;0.82;;;4.90;99.90;;;;;;5094202;28;20132;-77
2021/12/04 16:08:29;;;;;;;2.53;1.58;;;4.90;99.90;;;;;;5093872;28;20522;-76
2021/12/04 16:10:55;;;;;;;0.90;0.90;;;4.90;99.90;;;;;;5094125;28;20097;-75
2021/12/04 16:13:24;;;;;;;1.00;1.00;;;4.90;99.90;;;;;;5093940;28;20040;-77
2021/12/04 16:15:51;;;;;;;0.95;0.85;;;4.90;99.90;;;;;;5094002;28;20095;-77
2021/12/04 16:18:18;;;;;;;;;;;4.90;99.90;;;;;;5094037;28;20036;-75
2021/12/04 16:20:45;;;;;;;5.47;2.78;;;4.80;99.90;;;;;;5093391;28;19920;-76
2021/12/04 16:23:11;;;;;;;0.73;0.73;;;4.90;99.90;;;;;;5093751;28;20035;-77
2021/12/04 16:25:39;;;;;;;0.90;0.90;;;4.90;99.90;;;;;;5093892;28;20134;-77
2021/12/04 16:30:51;;;;;;;0.60;0.60;;;4.90;99.90;;;;;;5093610;28;20455;-76